createdAt,value
2022-08-22T00:00:24.422Z,10.45
2022-08-22T00:02:47.979Z,11.10
2022-08-22T00:02:54.938Z,9.38
2022-08-22T00:05:55.874Z,9.88
2022-08-22T00:08:30.028Z,10.10
2022-08-22T00:11:25.645Z,10.00
2022-08-22T00:14:35.398Z,9.50
2022-08-22T00:17:36.305Z,10.05
2022-08-22T00:20:28.441Z,10.73
2022-08-22T00:23:16.031Z,10.35
2022-08-22T00:26:09.625Z,10.65
2022-08-22T00:28:41.941Z,10.48
2022-08-22T00:31:26.592Z,10.73
2022-08-22T00:34:02.827Z,10.48
2022-08-22T00:36:52.553Z,11.05
2022-08-22T00:39:40.985Z,11.20
2022-08-22T00:42:08.235Z,11.80
2022-08-22T00:44:47.365Z,11.63
2022-08-22T00:47:32.477Z,10.38
2022-08-22T00:50:17.717Z,11.57
2022-08-22T00:53:14.316Z,11.02
2022-08-22T00:56:04.093Z,12.00
2022-08-22T00:59:23.392Z,12.18
2022-08-22T01:02:03.293Z,12.88
2022-08-22T01:04:33.009Z,12.40
2022-08-22T01:07:38.384Z,13.55
2022-08-22T01:10:29.492Z,13.55
2022-08-22T01:13:14.633Z,13.60
2022-08-22T01:15:42.788Z,14.00
2022-08-22T01:18:18.855Z,15.25
2022-08-22T01:21:03.931Z,15.60
2022-08-22T01:23:49.378Z,15.43
2022-08-22T01:26:31.855Z,16.40
2022-08-22T01:29:40.383Z,16.30
2022-08-22T01:32:47.808Z,15.75
2022-08-22T01:35:42.284Z,14.80
2022-08-22T01:38:44.752Z,15.95
2022-08-22T01:41:30.325Z,15.45
2022-08-22T01:44:10.656Z,14.02
2022-08-22T01:46:57.661Z,15.95
2022-08-22T01:49:49.084Z,16.02
2022-08-22T01:52:28.222Z,14.15
2022-08-22T01:55:09.388Z,14.43
2022-08-22T01:58:04.919Z,15.10
2022-08-22T02:00:56.027Z,13.95
2022-08-22T02:03:27.769Z,13.50
2022-08-22T02:06:00.484Z,14.57
2022-08-22T02:09:05.145Z,13.77
2022-08-22T02:11:56.063Z,13.13
2022-08-22T02:14:36.633Z,12.85
2022-08-22T02:17:50.392Z,13.60
2022-08-22T02:20:31.636Z,13.00
2022-08-22T02:23:07.386Z,14.38
2022-08-22T02:25:56.454Z,13.15
2022-08-22T02:28:57.001Z,13.40
2022-08-22T02:31:36.803Z,13.52
2022-08-22T02:34:20.592Z,12.85
2022-08-22T02:39:38.564Z,12.40
2022-08-22T02:42:23.803Z,13.02
2022-08-22T02:45:18.339Z,11.88
2022-08-22T02:48:15.156Z,12.23
2022-08-22T02:50:54.375Z,12.25
2022-08-22T02:53:32.456Z,12.32
2022-08-22T02:56:04.793Z,12.45
2022-08-22T02:58:59.198Z,12.57
2022-08-22T03:01:32.334Z,11.82
2022-08-22T03:04:18.011Z,12.32
2022-08-22T03:07:00.702Z,11.60
2022-08-22T03:09:33.603Z,12.20
2022-08-22T03:12:21.465Z,12.35
2022-08-22T03:14:51.028Z,12.15
2022-08-22T03:17:30.651Z,10.63
2022-08-22T03:19:57.232Z,11.32
2022-08-22T03:22:30.024Z,11.80
2022-08-22T03:25:37.509Z,12.52
2022-08-22T03:28:18.289Z,12.13
2022-08-22T03:30:56.087Z,12.35
2022-08-22T03:33:26.395Z,11.02
2022-08-22T03:35:58.104Z,11.95
2022-08-22T03:38:33.453Z,12.15
2022-08-22T03:41:24.087Z,11.15
2022-08-22T03:44:18.944Z,11.07
2022-08-22T03:47:04.044Z,11.07
2022-08-22T03:49:45.755Z,11.68
2022-08-22T03:52:34.002Z,12.68
2022-08-22T03:55:18.259Z,12.20
2022-08-22T03:57:54.652Z,12.35
2022-08-22T04:00:49.041Z,12.30
2022-08-22T04:03:41.652Z,11.55
2022-08-22T04:06:37.615Z,13.13
2022-08-22T04:09:50.215Z,12.80
2022-08-22T04:12:44.785Z,11.77
2022-08-22T04:15:48.359Z,12.77
2022-08-22T04:18:39.659Z,13.23
2022-08-22T04:21:16.433Z,14.07
2022-08-22T04:24:04.729Z,13.38
2022-08-22T04:26:34.544Z,15.05
2022-08-22T04:29:27.322Z,14.70
2022-08-22T04:32:12.716Z,16.25
2022-08-22T04:34:56.697Z,15.52
2022-08-22T04:37:31.707Z,15.57
2022-08-22T04:40:21.880Z,15.38
2022-08-22T04:43:03.765Z,14.93
2022-08-22T04:45:43.854Z,16.35
2022-08-22T04:48:22.218Z,15.45
2022-08-22T04:50:55.455Z,15.02
2022-08-22T04:53:34.220Z,16.33
2022-08-22T04:56:22.549Z,16.45
2022-08-22T04:58:58.576Z,14.35
2022-08-22T05:01:47.072Z,15.25
2022-08-22T05:04:18.505Z,15.48
2022-08-22T05:06:51.116Z,15.55
2022-08-22T05:09:25.838Z,14.73
2022-08-22T05:11:57.830Z,16.00
2022-08-22T05:14:33.796Z,14.10
2022-08-22T05:17:04.371Z,14.82
2022-08-22T05:19:36.171Z,13.90
2022-08-22T05:22:09.125Z,13.32
2022-08-22T05:24:46.280Z,13.40
2022-08-22T05:27:20.318Z,14.02
2022-08-22T05:29:50.045Z,13.75
2022-08-22T05:32:26.388Z,14.05
2022-08-22T05:34:59.693Z,14.07
2022-08-22T05:37:33.341Z,14.43
2022-08-22T05:40:01.516Z,13.05
2022-08-22T05:42:33.204Z,12.65
2022-08-22T05:45:06.881Z,13.18
2022-08-22T05:47:44.482Z,14.15
2022-08-22T05:50:19.994Z,13.73
2022-08-22T05:53:00.109Z,12.25
2022-08-22T05:55:29.363Z,11.02
2022-08-22T05:58:23.999Z,11.93
2022-08-22T06:00:58.682Z,12.13
2022-08-22T06:03:38.509Z,12.45
2022-08-22T06:06:14.877Z,10.07
2022-08-22T06:08:56.872Z,10.90
2022-08-22T06:11:39.754Z,11.70
2022-08-22T06:14:28.974Z,11.77
2022-08-22T06:17:10.435Z,11.43
2022-08-22T06:19:41.985Z,11.73
2022-08-22T06:22:11.748Z,11.20
2022-08-22T06:24:44.311Z,10.57
2022-08-22T06:27:14.296Z,11.35
2022-08-22T06:29:49.361Z,11.30
2022-08-22T06:32:34.160Z,11.07
2022-08-22T06:35:50.434Z,9.88
2022-08-22T06:38:20.333Z,10.00
2022-08-22T06:40:48.713Z,11.20
2022-08-22T06:43:16.334Z,10.30
2022-08-22T06:45:43.250Z,11.10
2022-08-22T06:48:09.804Z,10.82
2022-08-22T06:50:42.678Z,10.10
2022-08-22T06:53:16.886Z,9.80
2022-08-22T06:55:50.436Z,10.27
2022-08-22T06:58:23.074Z,10.43
2022-08-22T07:01:11.067Z,10.23
2022-08-22T07:03:45.010Z,10.02
2022-08-22T07:06:17.375Z,10.43
2022-08-22T07:08:45.082Z,9.68
2022-08-22T07:11:34.039Z,9.52
2022-08-22T07:14:08.393Z,9.85
2022-08-22T07:16:44.338Z,9.80
2022-08-22T07:19:24.807Z,9.55
2022-08-22T07:21:51.997Z,9.27
2022-08-22T07:24:25.191Z,9.80
2022-08-22T07:27:15.952Z,9.05
2022-08-22T07:29:46.278Z,8.93
2022-08-22T07:32:35.306Z,10.30
2022-08-22T07:35:13.428Z,7.72
2022-08-22T07:37:46.311Z,8.43
2022-08-22T07:40:23.624Z,8.80
2022-08-22T07:42:59.738Z,8.13
2022-08-22T07:45:47.618Z,8.27
2022-08-22T07:48:32.809Z,7.95
2022-08-22T07:51:15.375Z,8.93
2022-08-22T07:54:05.113Z,8.45
2022-08-22T07:56:37.410Z,10.52
2022-08-22T07:59:13.231Z,8.27
2022-08-22T08:01:48.441Z,9.40
2022-08-22T08:04:20.868Z,9.50
2022-08-22T08:06:50.989Z,8.93
2022-08-22T08:09:20.458Z,9.00
2022-08-22T08:11:51.461Z,9.57
2022-08-22T08:14:20.992Z,8.52
2022-08-22T08:17:18.708Z,8.90
2022-08-22T08:19:47.379Z,8.90
2022-08-22T08:22:24.849Z,8.68
2022-08-22T08:24:55.722Z,8.18
2022-08-22T08:27:45.037Z,9.32
2022-08-22T08:30:19.630Z,8.77
2022-08-22T08:32:57.575Z,8.60
2022-08-22T08:36:02.977Z,9.18
2022-08-22T08:39:14.397Z,8.82
2022-08-22T08:42:07.037Z,9.07
2022-08-22T08:44:52.230Z,8.77
2022-08-22T08:47:31.664Z,7.88
2022-08-22T08:50:10.420Z,8.43
2022-08-22T08:52:53.325Z,9.00
2022-08-22T08:55:38.642Z,8.85
2022-08-22T08:58:33.955Z,9.07
2022-08-22T09:01:07.054Z,8.85
2022-08-22T09:04:19.554Z,9.68
2022-08-22T09:07:01.325Z,10.52
2022-08-22T09:09:37.416Z,11.43
2022-08-22T09:12:17.098Z,8.85
2022-08-22T09:15:02.614Z,8.00
2022-08-22T09:18:03.766Z,9.05
2022-08-22T09:20:46.405Z,8.13
2022-08-22T09:23:43.856Z,8.52
2022-08-22T09:26:17.143Z,9.40
2022-08-22T09:32:03.495Z,8.60
2022-08-22T09:34:34.164Z,9.25
2022-08-22T09:37:16.919Z,9.10
2022-08-22T09:40:17.473Z,8.43
2022-08-22T09:42:53.032Z,8.98
2022-08-22T09:45:24.934Z,10.30
2022-08-22T09:48:07.203Z,9.43
2022-08-22T09:51:08.310Z,8.88
2022-08-22T09:54:18.823Z,9.07
2022-08-22T09:57:01.574Z,9.55
2022-08-22T09:59:52.282Z,9.75
2022-08-22T10:02:56.582Z,8.77
2022-08-22T10:05:41.043Z,8.02
2022-08-22T10:08:14.081Z,8.48
2022-08-22T10:11:19.003Z,8.45
2022-08-22T10:14:01.291Z,9.02
2022-08-22T10:16:53.182Z,9.27
2022-08-22T10:19:42.862Z,9.18
2022-08-22T10:22:10.035Z,9.10
2022-08-22T10:24:55.598Z,11.00
2022-08-22T10:27:50.967Z,9.02
2022-08-22T10:30:22.125Z,8.65
2022-08-22T10:32:57.034Z,8.80
2022-08-22T10:35:33.901Z,9.45
2022-08-22T10:38:12.428Z,9.38
2022-08-22T10:40:48.665Z,9.20
2022-08-22T10:43:28.852Z,8.95
2022-08-22T10:46:13.780Z,9.38
2022-08-22T10:48:54.807Z,8.18
2022-08-22T10:51:46.062Z,10.60
2022-08-22T10:54:23.166Z,10.13
2022-08-22T10:57:06.666Z,8.55
2022-08-22T10:59:46.019Z,8.80
2022-08-22T11:02:23.274Z,8.32
2022-08-22T11:05:04.492Z,10.27
2022-08-22T11:08:02.386Z,8.98
2022-08-22T11:10:40.935Z,9.13
2022-08-22T11:13:29.136Z,9.90
2022-08-22T11:16:14.075Z,9.45
2022-08-22T11:19:04.890Z,8.40
2022-08-22T11:21:48.570Z,9.43
2022-08-22T11:24:56.754Z,9.07
2022-08-22T11:27:38.307Z,9.00
2022-08-22T11:30:36.308Z,9.02
2022-08-22T11:33:46.599Z,10.57
2022-08-22T11:36:30.932Z,10.98
2022-08-22T11:41:53.499Z,12.68
2022-08-22T11:44:28.273Z,13.32
2022-08-22T11:46:58.080Z,13.57
2022-08-22T11:49:36.730Z,9.82
2022-08-22T11:52:15.278Z,11.77
2022-08-22T11:55:10.377Z,11.32
2022-08-22T12:00:50.311Z,11.15
2022-08-22T12:03:27.711Z,11.57
2022-08-22T12:06:00.340Z,11.30
2022-08-22T12:08:29.730Z,11.93
2022-08-22T12:10:59.856Z,13.50
2022-08-22T12:14:02.431Z,11.20
2022-08-22T12:16:39.277Z,12.73
2022-08-22T12:19:32.987Z,12.18
2022-08-22T12:22:31.118Z,12.93
2022-08-22T12:25:11.061Z,14.25
2022-08-22T12:27:55.306Z,13.90
2022-08-22T12:30:46.631Z,18.67
2022-08-22T12:33:14.263Z,23.35
2022-08-22T12:35:57.329Z,16.50
2022-08-22T12:38:38.959Z,15.60
2022-08-22T12:41:38.656Z,12.63
2022-08-22T12:44:26.939Z,13.38
2022-08-22T12:47:25.269Z,16.35
2022-08-22T12:50:13.572Z,14.05
2022-08-22T12:52:49.104Z,10.55
2022-08-22T12:55:28.195Z,12.13
2022-08-22T12:58:00.889Z,11.45
2022-08-22T13:00:41.598Z,12.82
2022-08-22T13:03:13.395Z,13.50
2022-08-22T13:05:56.864Z,12.35
2022-08-22T13:08:32.406Z,12.00
2022-08-22T13:11:09.832Z,12.45
2022-08-22T13:13:56.188Z,12.55
2022-08-22T13:16:25.663Z,13.27
2022-08-22T13:18:57.701Z,13.63
2022-08-22T13:21:34.655Z,12.90
2022-08-22T13:24:11.741Z,14.40
2022-08-22T13:26:49.144Z,10.23
2022-08-22T13:29:39.641Z,12.20
2022-08-22T13:32:30.817Z,14.48
2022-08-22T13:35:00.174Z,11.85
2022-08-22T13:37:40.771Z,11.10
2022-08-22T13:40:15.561Z,12.68
2022-08-22T13:42:50.113Z,10.98
2022-08-22T13:45:27.078Z,11.45
2022-08-22T13:48:08.966Z,10.50
2022-08-22T13:51:12.577Z,11.60
2022-08-22T13:54:00.871Z,10.05
2022-08-22T13:56:47.399Z,10.55
2022-08-22T13:59:52.518Z,10.95
2022-08-22T14:02:24.381Z,10.15
2022-08-22T14:05:04.307Z,10.48
2022-08-22T14:07:40.652Z,9.85
2022-08-22T14:10:14.770Z,11.77
2022-08-22T14:13:20.739Z,11.40
2022-08-22T14:15:47.799Z,12.95
2022-08-22T14:18:30.526Z,11.38
2022-08-22T14:21:17.215Z,11.90
2022-08-22T14:23:45.672Z,12.60
2022-08-22T14:26:33.020Z,13.18
2022-08-22T14:29:12.081Z,12.48
2022-08-22T14:31:39.129Z,11.90
2022-08-22T14:34:13.603Z,12.65
2022-08-22T14:37:06.107Z,12.98
2022-08-22T14:39:46.232Z,12.20
2022-08-22T14:42:17.731Z,12.10
2022-08-22T14:45:06.857Z,11.70
2022-08-22T14:48:30.028Z,11.70
2022-08-22T14:51:01.439Z,12.82
2022-08-22T14:56:06.425Z,12.30
2022-08-22T14:58:37.889Z,12.27
2022-08-22T15:01:11.869Z,12.10
2022-08-22T15:03:40.752Z,12.05
2022-08-22T15:06:29.006Z,12.18
2022-08-22T15:08:57.340Z,11.40
2022-08-22T15:11:31.811Z,11.07
2022-08-22T15:14:07.067Z,12.25
2022-08-22T15:16:46.418Z,11.95
2022-08-22T15:19:35.939Z,12.25
2022-08-22T15:22:16.739Z,11.63
2022-08-22T15:24:49.489Z,11.20
2022-08-22T15:27:20.550Z,12.68
2022-08-22T15:29:55.604Z,12.20
2022-08-22T15:32:35.759Z,10.73
2022-08-22T15:35:16.406Z,10.30
2022-08-22T15:38:02.967Z,10.20
2022-08-22T15:40:45.755Z,11.35
2022-08-22T15:43:33.656Z,10.63
2022-08-22T15:46:26.001Z,9.75
2022-08-22T15:49:23.507Z,10.65
2022-08-22T15:52:14.399Z,9.90
2022-08-22T15:54:53.333Z,10.57
2022-08-22T15:57:35.093Z,12.82
2022-08-22T16:00:05.219Z,11.88
2022-08-22T16:02:53.485Z,11.13
2022-08-22T16:05:37.112Z,12.88
2022-08-22T16:08:11.874Z,12.70
2022-08-22T16:10:45.512Z,12.32
2022-08-22T16:13:27.508Z,13.88
2022-08-22T16:16:08.461Z,14.02
2022-08-22T16:18:37.695Z,14.98
2022-08-22T16:21:08.174Z,15.40
2022-08-22T16:23:49.901Z,13.75
2022-08-22T16:26:30.360Z,12.43
2022-08-22T16:29:17.488Z,11.23
2022-08-22T16:31:44.882Z,12.10
2022-08-22T16:34:17.798Z,11.73
2022-08-22T16:37:08.725Z,11.88
2022-08-22T16:39:49.973Z,12.68
2022-08-22T16:42:19.493Z,12.20
2022-08-22T16:44:46.087Z,12.30
2022-08-22T16:47:21.666Z,12.13
2022-08-22T16:49:51.392Z,13.02
2022-08-22T16:52:21.199Z,14.98
2022-08-22T16:54:49.393Z,12.15
2022-08-22T16:57:22.364Z,11.80
2022-08-22T17:00:11.368Z,13.35
2022-08-22T17:02:50.357Z,13.73
2022-08-22T17:05:37.571Z,12.70
2022-08-22T17:08:39.437Z,14.63
2022-08-22T17:11:21.143Z,12.75
2022-08-22T17:14:00.574Z,13.38
2022-08-22T17:16:42.736Z,13.40
2022-08-22T17:19:40.170Z,18.60
2022-08-22T17:22:36.547Z,19.90
2022-08-22T17:25:24.266Z,20.50
2022-08-22T17:28:09.064Z,16.30
2022-08-22T17:30:46.566Z,18.25
2022-08-22T17:33:23.462Z,18.90
2022-08-22T17:36:26.677Z,24.33
2022-08-22T17:39:25.015Z,21.70
2022-08-22T17:42:21.110Z,19.63
2022-08-22T17:44:54.906Z,14.43
2022-08-22T17:50:18.596Z,15.73
2022-08-22T17:52:46.108Z,14.60
2022-08-22T17:55:40.456Z,15.00
2022-08-22T17:58:36.057Z,15.50
2022-08-22T18:01:15.082Z,15.90
2022-08-22T18:03:50.612Z,15.05
2022-08-22T18:06:26.560Z,20.30
2022-08-22T18:09:23.296Z,18.13
2022-08-22T18:11:54.540Z,14.57
2022-08-22T18:14:29.278Z,13.85
2022-08-22T18:16:59.302Z,14.30
2022-08-22T18:19:50.286Z,15.43
2022-08-22T18:22:27.446Z,14.55
2022-08-22T18:24:54.132Z,17.45
2022-08-22T18:27:34.266Z,17.50
2022-08-22T18:30:08.515Z,14.93
2022-08-22T18:32:49.704Z,13.95
2022-08-22T18:35:23.675Z,13.13
2022-08-22T18:38:19.320Z,13.77
2022-08-22T18:40:54.589Z,13.40
2022-08-22T18:43:36.963Z,13.20
2022-08-22T18:46:38.695Z,13.52
2022-08-22T18:49:16.007Z,11.18
2022-08-22T18:51:43.359Z,12.30
2022-08-22T18:54:11.485Z,12.90
2022-08-22T18:56:47.826Z,13.68
2022-08-22T18:59:17.222Z,13.68
2022-08-22T19:02:01.460Z,13.40
2022-08-22T19:04:47.433Z,13.20
2022-08-22T19:07:32.923Z,12.13
2022-08-22T19:10:05.659Z,11.73
2022-08-22T19:12:55.462Z,12.40
2022-08-22T19:15:53.272Z,11.70
2022-08-22T19:18:55.990Z,12.07
2022-08-22T19:21:47.135Z,12.25
2022-08-22T19:24:19.671Z,13.20
2022-08-22T19:27:18.115Z,12.55
2022-08-22T19:29:44.796Z,13.00
2022-08-22T19:32:46.556Z,13.07
2022-08-22T19:35:37.348Z,15.05
2022-08-22T19:38:07.244Z,15.38
2022-08-22T19:40:46.016Z,30.02
2022-08-22T19:43:46.713Z,25.67
2022-08-22T19:46:14.941Z,14.63
2022-08-22T19:48:49.062Z,15.98
2022-08-22T19:51:22.045Z,14.68
2022-08-22T19:54:16.996Z,17.10
2022-08-22T19:57:16.760Z,15.95
2022-08-22T20:00:21.883Z,15.77
2022-08-22T20:03:05.017Z,16.33
2022-08-22T20:05:37.413Z,13.10
2022-08-22T20:08:41.724Z,17.63
2022-08-22T20:11:37.819Z,14.57
2022-08-22T20:14:24.959Z,15.82
2022-08-22T20:17:24.348Z,17.58
2022-08-22T20:22:39.289Z,13.02
2022-08-22T20:25:41.759Z,14.02
2022-08-22T20:28:08.579Z,12.68
2022-08-22T20:30:45.715Z,14.90
2022-08-22T20:33:32.729Z,14.05
2022-08-22T20:36:05.211Z,14.82
2022-08-22T20:38:38.223Z,15.45
2022-08-22T20:41:26.209Z,13.00
2022-08-22T20:44:18.872Z,13.57
2022-08-22T20:46:46.023Z,14.05
2022-08-22T20:49:40.823Z,13.00
2022-08-22T20:52:23.046Z,13.15
2022-08-22T20:55:08.276Z,12.68
2022-08-22T20:57:46.138Z,13.30
2022-08-22T21:00:16.598Z,12.68
2022-08-22T21:03:04.387Z,13.60
2022-08-22T21:05:49.174Z,14.27
2022-08-22T21:08:20.597Z,13.18
2022-08-22T21:11:16.507Z,13.82
2022-08-22T21:13:43.363Z,12.00
2022-08-22T21:16:19.095Z,13.68
2022-08-22T21:18:51.532Z,11.65
2022-08-22T21:21:20.607Z,12.48
2022-08-22T21:23:49.837Z,14.18
2022-08-22T21:26:19.522Z,14.90
2022-08-22T21:28:49.137Z,16.20
2022-08-22T21:31:22.637Z,16.45
2022-08-22T21:36:20.503Z,14.75
2022-08-22T21:38:54.400Z,16.63
2022-08-22T21:41:39.320Z,18.13
2022-08-22T21:44:38.242Z,16.25
2022-08-22T21:47:31.392Z,15.25
2022-08-22T21:50:06.785Z,13.90
2022-08-22T21:52:36.135Z,14.30
2022-08-22T21:55:29.872Z,13.75
2022-08-22T21:58:05.504Z,14.15
2022-08-22T22:00:49.365Z,13.25
2022-08-22T22:03:19.248Z,13.23
2022-08-22T22:05:46.276Z,13.45
2022-08-22T22:08:13.303Z,13.18
2022-08-22T22:10:42.169Z,12.32
2022-08-22T22:13:09.973Z,13.00
2022-08-22T22:15:44.135Z,13.48
2022-08-22T22:18:13.079Z,12.68
2022-08-22T22:20:40.039Z,12.68
2022-08-22T22:23:06.777Z,12.43
2022-08-22T22:25:39.563Z,13.18
2022-08-22T22:28:15.946Z,11.07
2022-08-22T22:30:44.142Z,11.98
2022-08-22T22:33:11.324Z,12.65
2022-08-22T22:35:40.187Z,13.55
2022-08-22T22:38:07.867Z,12.38
2022-08-22T22:40:35.282Z,13.52
2022-08-22T22:43:02.017Z,13.65
2022-08-22T22:45:28.918Z,14.27
2022-08-22T22:47:55.642Z,13.93
2022-08-22T22:50:22.357Z,15.60
2022-08-22T22:52:49.062Z,15.38
2022-08-22T22:55:24.753Z,16.50
2022-08-22T22:57:59.323Z,19.73
2022-08-22T23:00:30.630Z,19.70
2022-08-22T23:03:02.146Z,15.65
2022-08-22T23:05:30.381Z,15.48
2022-08-22T23:07:57.757Z,14.38
2022-08-22T23:10:25.621Z,15.82
2022-08-22T23:12:52.268Z,15.80
2022-08-22T23:15:18.923Z,15.00
2022-08-22T23:17:45.751Z,15.50
2022-08-22T23:20:12.721Z,16.15
2022-08-22T23:22:41.608Z,16.58
2022-08-22T23:25:09.257Z,16.65
2022-08-22T23:27:36.672Z,18.17
2022-08-22T23:30:05.605Z,18.42
2022-08-22T23:32:32.994Z,17.17
2022-08-22T23:34:59.633Z,16.33
2022-08-22T23:37:26.331Z,16.30
2022-08-22T23:39:53.117Z,16.27
2022-08-22T23:42:19.831Z,15.48
2022-08-22T23:44:46.559Z,15.48
2022-08-22T23:47:14.253Z,16.52
2022-08-22T23:49:42.655Z,16.48
2022-08-22T23:52:12.220Z,16.70
2022-08-22T23:54:40.116Z,15.93
2022-08-22T23:57:11.461Z,16.50
2022-08-22T23:59:46.525Z,18.38
